sensor_id;sensor_type;location;lat;lon;timestamp;pressure;altitude;pressure_sealevel;temperature;humidity
43691;BME280;29293;52.190;21.226;2023-03-25T00:14:53;99159.96;;;9.23;100.00
43691;BME280;29293;52.190;21.226;2023-03-25T00:30:00;99146.66;;;9.05;100.00
43691;BME280;29293;52.190;21.226;2023-03-25T00:45:09;99151.10;;;8.82;100.00
43691;BME280;29293;52.190;21.226;2023-03-25T01:00:17;99152.48;;;8.68;100.00
43691;BME280;29293;52.190;21.226;2023-03-25T01:15:23;99155.83;;;8.62;100.00
43691;BME280;29293;52.190;21.226;2023-03-25T01:30:30;99151.94;;;8.51;100.00
43691;BME280;29293;52.190;21.226;2023-03-25T01:45:37;99148.29;;;8.27;100.00
43691;BME280;29293;52.190;21.226;2023-03-25T02:00:46;99140.96;;;7.84;100.00
43691;BME280;29293;52.190;21.226;2023-03-25T02:16:10;99147.63;;;7.59;100.00
43691;BME280;29293;52.190;21.226;2023-03-25T02:31:45;99156.74;;;7.40;100.00
43691;BME280;29293;52.190;21.226;2023-03-25T02:46:59;99138.14;;;7.17;100.00
43691;BME280;29293;52.190;21.226;2023-03-25T03:02:09;99153.67;;;6.92;100.00
43691;BME280;29293;52.190;21.226;2023-03-25T03:17:16;99144.25;;;6.64;100.00
43691;BME280;29293;52.190;21.226;2023-03-25T03:32:31;99167.55;;;6.45;100.00
43691;BME280;29293;52.190;21.226;2023-03-25T03:47:44;99174.27;;;6.32;100.00
43691;BME280;29293;52.190;21.226;2023-03-25T04:02:56;99158.65;;;6.19;100.00
43691;BME280;29293;52.190;21.226;2023-03-25T04:18:07;99174.38;;;6.12;100.00
43691;BME280;29293;52.190;21.226;2023-03-25T04:33:14;99194.94;;;6.03;100.00
43691;BME280;29293;52.190;21.226;2023-03-25T04:48:23;99211.03;;;5.96;100.00
43691;BME280;29293;52.190;21.226;2023-03-25T05:03:34;99200.05;;;6.04;100.00
43691;BME280;29293;52.190;21.226;2023-03-25T05:18:44;99196.64;;;6.26;100.00
43691;BME280;29293;52.190;21.226;2023-03-25T05:33:51;99210.03;;;6.56;100.00
43691;BME280;29293;52.190;21.226;2023-03-25T05:49:01;99213.50;;;6.83;100.00
43691;BME280;29293;52.190;21.226;2023-03-25T06:04:08;99217.59;;;7.19;100.00
43691;BME280;29293;52.190;21.226;2023-03-25T06:19:16;99217.95;;;7.55;100.00
43691;BME280;29293;52.190;21.226;2023-03-25T06:34:23;99219.81;;;7.90;100.00
43691;BME280;29293;52.190;21.226;2023-03-25T06:49:31;99214.00;;;8.30;100.00
43691;BME280;29293;52.190;21.226;2023-03-25T07:04:38;99226.84;;;8.72;100.00
43691;BME280;29293;52.190;21.226;2023-03-25T07:19:46;99226.75;;;9.05;100.00
43691;BME280;29293;52.190;21.226;2023-03-25T07:34:53;99219.48;;;9.51;100.00
43691;BME280;29293;52.190;21.226;2023-03-25T07:50:00;99220.34;;;9.74;100.00
43691;BME280;29293;52.190;21.226;2023-03-25T08:05:08;99208.98;;;9.92;100.00
43691;BME280;29293;52.190;21.226;2023-03-25T08:20:16;99199.25;;;10.15;100.00
43691;BME280;29293;52.190;21.226;2023-03-25T08:35:23;99211.27;;;10.39;100.00
43691;BME280;29293;52.190;21.226;2023-03-25T08:50:30;99209.61;;;11.01;100.00
43691;BME280;29293;52.190;21.226;2023-03-25T09:05:40;99211.73;;;11.62;100.00
43691;BME280;29293;52.190;21.226;2023-03-25T09:41:43;99199.08;;;12.85;100.00
43691;BME280;29293;52.190;21.226;2023-03-25T09:56:50;99184.44;;;13.20;100.00
43691;BME280;29293;52.190;21.226;2023-03-25T10:12:03;99170.61;;;13.53;100.00
43691;BME280;29293;52.190;21.226;2023-03-25T10:27:18;99167.70;;;13.68;100.00
43691;BME280;29293;52.190;21.226;2023-03-25T10:42:32;99159.47;;;13.96;100.00
43691;BME280;29293;52.190;21.226;2023-03-25T10:57:40;99139.45;;;15.07;100.00
43691;BME280;29293;52.190;21.226;2023-03-25T13:23:10;99009.32;;;14.95;100.00
43691;BME280;29293;52.190;21.226;2023-03-25T13:38:22;99001.70;;;15.25;100.00
43691;BME280;29293;52.190;21.226;2023-03-25T13:53:36;99044.57;;;13.73;100.00
43691;BME280;29293;52.190;21.226;2023-03-25T14:09:13;99027.69;;;11.43;100.00
43691;BME280;29293;52.190;21.226;2023-03-25T14:24:28;99018.05;;;11.12;100.00
43691;BME280;29293;52.190;21.226;2023-03-25T14:39:39;99022.41;;;11.61;100.00
43691;BME280;29293;52.190;21.226;2023-03-25T14:54:51;99023.45;;;11.79;100.00
43691;BME280;29293;52.190;21.226;2023-03-25T15:09:59;99011.09;;;12.02;100.00
43691;BME280;29293;52.190;21.226;2023-03-25T15:25:11;99021.58;;;11.85;100.00
43691;BME280;29293;52.190;21.226;2023-03-25T15:40:29;99078.40;;;10.64;100.00
43691;BME280;29293;52.190;21.226;2023-03-25T15:55:40;99091.09;;;9.50;100.00
43691;BME280;29293;52.190;21.226;2023-03-25T16:10:50;99096.33;;;9.05;100.00
43691;BME280;29293;52.190;21.226;2023-03-25T16:25:57;99064.80;;;8.54;100.00
43691;BME280;29293;52.190;21.226;2023-03-25T16:41:11;99054.80;;;8.27;100.00
43691;BME280;29293;52.190;21.226;2023-03-25T16:56:28;99067.56;;;7.99;100.00
43691;BME280;29293;52.190;21.226;2023-03-25T17:11:36;99084.61;;;7.63;100.00
43691;BME280;29293;52.190;21.226;2023-03-25T17:26:57;99093.48;;;7.27;100.00
43691;BME280;29293;52.190;21.226;2023-03-25T17:42:20;99099.80;;;6.96;100.00
43691;BME280;29293;52.190;21.226;2023-03-25T17:57:28;99098.55;;;6.72;100.00
43691;BME280;29293;52.190;21.226;2023-03-25T18:12:34;99096.51;;;6.51;100.00
43691;BME280;29293;52.190;21.226;2023-03-25T18:27:41;99106.48;;;6.40;100.00
43691;BME280;29293;52.190;21.226;2023-03-25T18:42:50;99100.61;;;6.39;100.00
43691;BME280;29293;52.190;21.226;2023-03-25T18:57:57;99104.58;;;6.53;100.00
43691;BME280;29293;52.190;21.226;2023-03-25T19:13:06;99113.52;;;6.65;100.00
43691;BME280;29293;52.190;21.226;2023-03-25T19:28:17;99123.86;;;6.65;100.00
43691;BME280;29293;52.190;21.226;2023-03-25T19:43:24;99113.35;;;6.69;100.00
43691;BME280;29293;52.190;21.226;2023-03-25T19:58:31;99097.38;;;6.82;100.00
43691;BME280;29293;52.190;21.226;2023-03-25T20:13:41;99105.70;;;6.81;100.00
43691;BME280;29293;52.190;21.226;2023-03-25T20:28:49;99105.02;;;6.57;100.00
43691;BME280;29293;52.190;21.226;2023-03-25T20:43:58;99104.61;;;6.20;100.00
43691;BME280;29293;52.190;21.226;2023-03-25T20:59:06;99115.59;;;5.88;100.00
43691;BME280;29293;52.190;21.226;2023-03-25T21:14:13;99113.33;;;5.59;100.00
43691;BME280;29293;52.190;21.226;2023-03-25T21:29:20;99108.52;;;5.36;100.00
43691;BME280;29293;52.190;21.226;2023-03-25T21:44:27;99109.35;;;5.24;100.00
43691;BME280;29293;52.190;21.226;2023-03-25T21:59:37;99097.34;;;5.05;100.00
43691;BME280;29293;52.190;21.226;2023-03-25T22:14:45;99094.70;;;4.82;100.00
43691;BME280;29293;52.190;21.226;2023-03-25T22:29:51;99097.35;;;4.84;100.00
43691;BME280;29293;52.190;21.226;2023-03-25T22:44:58;99102.63;;;4.84;100.00
43691;BME280;29293;52.190;21.226;2023-03-25T23:00:09;99101.33;;;4.95;100.00
43691;BME280;29293;52.190;21.226;2023-03-25T23:15:18;99105.52;;;5.12;100.00
43691;BME280;29293;52.190;21.226;2023-03-25T23:30:25;99094.84;;;5.21;100.00
43691;BME280;29293;52.190;21.226;2023-03-25T23:45:32;99091.13;;;5.14;100.00
